Time;durP1;ratioP1;P1;durP2;ratioP2;P2;SDS_P1;SDS_P2;PMS_P1;PMS_P2;Temp;Humidity;BMP_temperature;BMP_pressure;BME280_temperature;BME280_humidity;BME280_pressure;Samples;Min_cycle;Max_cycle;Signal;HPM_P1;HPM_P2
2023/09/20 00:00:08;;;;;;;;;;;;;;;20.18;58.69;99176.31;10205696;28;911;-79
2023/09/20 00:05:04;;;;;;;;;;;;;;;20.18;58.39;99184.25;10207174;28;842;-79
2023/09/20 00:10:01;;;;;;;;;;;;;;;20.17;58.55;99171.94;10206069;28;1898;-79
2023/09/20 00:14:59;;;;;;;;;;;;;;;20.17;58.56;99179.03;10206512;28;806;-78
2023/09/20 00:19:55;;;;;;;;;;;;;;;20.15;58.42;99173.88;10205881;28;799;-77
2023/09/20 00:24:51;;;;;;;;;;;;;;;20.15;58.52;99171.22;10206314;28;810;-79
2023/09/20 00:29:47;;;;;;;;;;;;;;;20.16;58.70;99174.72;10205187;28;1949;-78
2023/09/20 00:34:43;;;;;;;;;;;;;;;20.15;58.64;99176.50;10206400;28;908;-78
2023/09/20 00:39:39;;;;;;;;;;;;;;;20.14;58.59;99167.69;10204836;28;1237;-78
2023/09/20 00:44:35;;;;;;;;;;;;;;;20.15;58.71;99176.50;10205509;28;783;-79
2023/09/20 00:49:32;;;;;;;;;;;;;;;20.14;58.56;99166.84;10204859;28;1973;-79
2023/09/20 00:54:28;;;;;;;;;;;;;;;20.14;58.56;99169.50;10204867;28;802;-79
2023/09/20 00:59:24;;;;;;;;;;;;;;;20.13;58.70;99171.28;10204307;28;864;-79
2023/09/20 01:04:20;;;;;;;;;;;;;;;20.11;58.48;99162.59;10204430;28;921;-79
2023/09/20 01:09:16;;;;;;;;;;;;;;;20.11;58.71;99162.59;10204138;28;1957;-79
2023/09/20 01:14:12;;;;;;;;;;;;;;;20.12;58.62;99160.78;10203898;28;864;-79
2023/09/20 01:19:08;;;;;;;;;;;;;;;20.12;58.66;99176.66;10204582;28;992;-79
2023/09/20 01:24:03;;;;;;;;;;;;;;;20.09;58.30;99159.19;10203948;28;906;-79
2023/09/20 01:29:00;;;;;;;;;;;;;;;20.10;58.77;99165.34;10203672;28;1955;-79
2023/09/20 01:33:56;;;;;;;;;;;;;;;20.09;58.75;99169.78;10204526;28;813;-79
2023/09/20 01:38:51;;;;;;;;;;;;;;;20.10;58.62;99168.00;10203638;28;1347;-79
2023/09/20 01:43:48;;;;;;;;;;;;;;;20.09;58.60;99161.84;10203536;28;894;-78
2023/09/20 01:48:44;;;;;;;;;;;;;;;20.09;58.85;99159.19;10204332;28;1977;-79
2023/09/20 01:53:40;;;;;;;;;;;;;;;20.09;58.76;99155.69;10204110;28;972;-79
2023/09/20 01:58:36;;;;;;;;;;;;;;;20.09;58.69;99153.06;10203496;28;802;-79
2023/09/20 02:03:32;;;;;;;;;;;;;;;20.09;58.71;99147.75;10203145;28;972;-79
2023/09/20 02:08:28;;;;;;;;;;;;;;;20.09;58.89;99153.91;10203754;28;1902;-79
2023/09/20 02:13:24;;;;;;;;;;;;;;;20.09;58.72;99150.41;10202973;28;867;-79
2023/09/20 02:18:22;;;;;;;;;;;;;;;20.08;58.91;99156.66;10203488;28;955;-79
2023/09/20 02:23:18;;;;;;;;;;;;;;;20.08;58.78;99154.00;10202790;28;884;-78
2023/09/20 02:28:14;;;;;;;;;;;;;;;20.07;58.83;99147.03;10209755;28;1902;-79
2023/09/20 02:33:17;;;;;;;;;;;;;;;20.07;58.79;99147.03;10210442;28;946;-78
2023/09/20 02:38:13;;;;;;;;;;;;;;;20.07;59.02;99154.97;10209044;28;1235;-78
2023/09/20 02:43:10;;;;;;;;;;;;;;;20.05;58.92;99123.31;10210035;28;964;-79
2023/09/20 02:48:09;;;;;;;;;;;;;;;20.05;58.85;99135.69;10209216;28;1977;-79
2023/09/20 02:53:06;;;;;;;;;;;;;;;20.05;58.88;99133.03;10209174;28;809;-78
2023/09/20 02:58:02;;;;;;;;;;;;;;;20.05;59.07;99133.03;10209341;28;790;-79
2023/09/20 03:02:57;;;;;;;;;;;;;;;20.04;58.95;99129.56;10209352;28;943;-79
2023/09/20 03:07:53;;;;;;;;;;;;;;;20.04;59.02;99121.63;10208413;28;1902;-79
2023/09/20 03:12:51;;;;;;;;;;;;;;;20.04;59.01;99115.44;10208347;28;884;-79
2023/09/20 03:17:47;;;;;;;;;;;;;;;20.03;59.07;99116.41;10208209;28;758;-78
2023/09/20 03:22:43;;;;;;;;;;;;;;;20.02;59.03;99102.34;10207490;28;795;-79
2023/09/20 03:27:40;;;;;;;;;;;;;;;20.04;59.09;99102.22;10207644;28;1957;-79
2023/09/20 03:32:36;;;;;;;;;;;;;;;20.02;59.08;99098.84;10207619;28;759;-79
2023/09/20 03:37:33;;;;;;;;;;;;;;;20.02;59.06;99091.75;10205656;28;1523;-79
2023/09/20 03:42:29;;;;;;;;;;;;;;;20.01;59.11;99099.78;10207150;28;978;-80
2023/09/20 03:47:28;;;;;;;;;;;;;;;20.00;59.04;99088.34;10207573;28;1914;-79
2023/09/20 03:52:23;;;;;;;;;;;;;;;20.00;59.04;99079.56;10206881;28;783;-78
2023/09/20 03:57:24;;;;;;;;;;;;;;;20.00;59.18;99079.56;10207244;28;867;-79
2023/09/20 04:02:23;;;;;;;;;;;;;;;20.00;59.10;99072.47;10206326;28;783;-79
2023/09/20 04:07:19;;;;;;;;;;;;;;;19.99;59.24;99064.63;10206455;28;1875;-79
2023/09/20 04:12:15;;;;;;;;;;;;;;;19.99;59.16;99056.69;10206322;28;799;-79
2023/09/20 04:17:11;;;;;;;;;;;;;;;19.98;59.20;99058.50;10207123;28;929;-79
2023/09/20 04:22:07;;;;;;;;;;;;;;;19.97;59.28;99051.53;10205703;28;1005;-79
2023/09/20 04:27:03;;;;;;;;;;;;;;;19.98;59.32;99047.91;10205561;28;1963;-79
2023/09/20 04:31:59;;;;;;;;;;;;;;;19.98;59.20;99036.50;10204789;28;977;-80
2023/09/20 04:36:56;;;;;;;;;;;;;;;19.97;59.25;99037.44;10205689;28;1119;-79
2023/09/20 04:41:53;;;;;;;;;;;;;;;19.97;59.34;99032.16;10205106;28;816;-79
2023/09/20 04:46:49;;;;;;;;;;;;;;;19.96;59.33;99030.44;10204534;28;1973;-79
2023/09/20 04:51:45;;;;;;;;;;;;;;;19.95;59.20;99028.75;10205527;28;958;-79
2023/09/20 04:56:47;;;;;;;;;;;;;;;19.95;59.20;99034.03;10204276;28;879;-79
2023/09/20 05:01:43;;;;;;;;;;;;;;;19.94;59.32;99049.06;10204433;28;829;-78
2023/09/20 05:06:39;;;;;;;;;;;;;;;19.94;59.29;99041.13;10203689;28;1910;-79
2023/09/20 05:11:35;;;;;;;;;;;;;;;19.92;59.43;99038.56;10204940;28;871;-79
2023/09/20 05:16:31;;;;;;;;;;;;;;;19.93;59.39;99044.72;10204092;28;876;-80
2023/09/20 05:21:27;;;;;;;;;;;;;;;19.92;59.42;99038.56;10203912;28;842;-79
2023/09/20 05:26:23;;;;;;;;;;;;;;;19.91;59.43;99036.88;10204392;28;1922;-79
2023/09/20 05:31:19;;;;;;;;;;;;;;;19.91;59.29;99047.47;10203776;28;899;-79
2023/09/20 05:36:16;;;;;;;;;;;;;;;19.92;59.23;99037.72;10204428;28;956;-77
2023/09/20 05:41:12;;;;;;;;;;;;;;;19.91;59.38;99034.25;10203537;28;826;-78
2023/09/20 05:46:09;;;;;;;;;;;;;;;19.91;59.37;99030.72;10205091;28;882;-79
2023/09/20 05:51:05;;;;;;;;;;;;;;;19.90;59.39;99032.53;10203896;28;1907;-84
2023/09/20 05:56:01;;;;;;;;;;;;;;;19.91;59.28;99034.25;10203502;28;787;-72
2023/09/20 06:00:59;;;;;;;;;;;;;;;19.92;59.42;99035.09;10207229;28;770;-73
2023/09/20 06:05:54;;;;;;;;;;;;;;;19.91;59.59;99038.66;10210938;28;878;-73
2023/09/20 06:10:52;;;;;;;;;;;;;;;19.92;59.69;99043.03;10211140;28;1890;-72
2023/09/20 06:15:48;;;;;;;;;;;;;;;19.92;59.42;99054.44;10210459;28;890;-85
2023/09/20 06:20:50;;;;;;;;;;;;;;;19.90;59.53;99048.41;10210989;28;819;-84
2023/09/20 06:25:49;;;;;;;;;;;;;;;19.89;59.50;99054.66;10210166;28;911;-84
2023/09/20 06:30:47;;;;;;;;;;;;;;;19.90;59.46;99048.41;10209744;28;1941;-84
2023/09/20 06:35:45;;;;;;;;;;;;;;;19.90;59.54;99045.75;10210021;28;986;-84
2023/09/20 06:40:41;;;;;;;;;;;;;;;19.89;59.48;99038.78;10210116;28;1334;-84
2023/09/20 06:45:37;;;;;;;;;;;;;;;19.91;59.36;99041.31;10209665;28;815;-77
2023/09/20 06:50:33;;;;;;;;;;;;;;;19.90;59.36;99035.16;10209624;28;1971;-84
2023/09/20 06:55:29;;;;;;;;;;;;;;;19.91;59.43;99041.31;10209693;28;803;-79
2023/09/20 07:00:25;;;;;;;;;;;;;;;19.91;59.44;99033.38;10209001;28;1243;-77
2023/09/20 07:05:24;;;;;;;;;;;;;;;19.91;59.44;99030.72;10208609;28;791;-77
2023/09/20 07:10:20;;;;;;;;;;;;;;;19.92;59.50;99033.28;10208076;28;1960;-72
2023/09/20 07:15:15;;;;;;;;;;;;;;;19.96;60.07;99043.66;10208318;28;936;-73
2023/09/20 07:20:18;;;;;;;;;;;;;;;19.97;59.91;99034.81;10208757;28;900;-72
2023/09/20 07:25:19;;;;;;;;;;;;;;;19.96;59.94;99036.56;10208492;28;898;-70
2023/09/20 07:30:17;;;;;;;;;;;;;;;19.98;59.95;99041.78;10208784;28;1959;-73
2023/09/20 07:40:40;;;;;;;;;;;;;;;19.92;60.08;99033.28;10183802;28;1351;-71
2023/09/20 07:45:39;;;;;;;;;;;;;;;19.93;59.88;99010.31;10207104;28;923;-71
2023/09/20 07:50:37;;;;;;;;;;;;;;;19.91;59.88;99010.44;10206829;28;1977;-71
2023/09/20 07:55:34;;;;;;;;;;;;;;;19.90;59.91;98998.16;10206798;28;815;-78
2023/09/20 08:00:30;;;;;;;;;;;;;;;19.90;59.73;99008.72;10206709;28;859;-73
2023/09/20 08:05:27;;;;;;;;;;;;;;;19.90;59.75;99003.44;10206998;28;892;-72
2023/09/20 08:10:23;;;;;;;;;;;;;;;19.91;59.77;99005.16;10206716;28;1957;-73
2023/09/20 08:15:20;;;;;;;;;;;;;;;19.91;59.65;99010.44;10205524;28;899;-74
2023/09/20 08:20:16;;;;;;;;;;;;;;;19.92;59.58;99006.84;10206039;28;834;-79
2023/09/20 09:01:54;;;;;;;;;;;;;;;20.18;59.87;99033.41;10243521;28;1364;-71
2023/09/20 09:06:50;;;;;;;;;;;;;;;20.13;59.75;99040.81;10243817;28;1890;-71
2023/09/20 09:11:46;;;;;;;;;;;;;;;20.16;60.23;99039.75;10243763;28;1567;-72
2023/09/20 09:16:42;;;;;;;;;;;;;;;20.14;59.99;99045.97;10244839;28;895;-79
2023/09/20 09:21:38;;;;;;;;;;;;;;;20.13;60.49;99051.38;10243414;28;1496;-82
2023/09/20 09:26:34;;;;;;;;;;;;;;;20.10;60.00;99068.31;10244602;28;1898;-84
2023/09/20 09:31:30;;;;;;;;;;;;;;;20.09;60.17;99071.03;10243763;28;1012;-84
2023/09/20 09:36:26;;;;;;;;;;;;;;;20.07;60.14;99042.06;10251384;28;1263;-84
2023/09/20 09:41:22;;;;;;;;;;;;;;;20.05;60.02;99049.22;10253472;28;866;-84
2023/09/20 09:46:18;;;;;;;;;;;;;;;20.05;59.86;99048.38;10252611;28;850;-84
2023/09/20 09:51:14;;;;;;;;;;;;;;;20.05;60.01;99057.16;10251782;28;1910;-84
2023/09/20 09:56:10;;;;;;;;;;;;;;;20.04;59.74;99051.97;10251591;28;968;-84
2023/09/20 10:01:06;;;;;;;;;;;;;;;20.03;59.79;99059.06;10251004;28;902;-84
2023/09/20 10:06:03;;;;;;;;;;;;;;;20.04;59.89;99057.25;10251264;28;790;-84
2023/09/20 10:10:59;;;;;;;;;;;;;;;20.03;59.89;99050.28;10251702;28;1886;-84
2023/09/20 10:15:55;;;;;;;;;;;;;;;20.04;59.61;99049.31;10251726;28;803;-84
2023/09/20 10:20:51;;;;;;;;;;;;;;;20.06;59.56;99039.50;10250774;28;892;-84
2023/09/20 10:25:48;;;;;;;;;;;;;;;20.06;59.59;99034.19;10249937;28;1039;-84
2023/09/20 10:30:43;;;;;;;;;;;;;;;20.07;59.48;99027.97;10249653;28;1951;-85
2023/09/20 10:35:41;;;;;;;;;;;;;;;20.07;59.51;99038.56;10250151;28;764;-84
2023/09/20 10:40:37;;;;;;;;;;;;;;;20.08;59.64;99037.59;10249358;28;1296;-84
2023/09/20 10:45:34;;;;;;;;;;;;;;;20.07;59.58;99023.53;10249205;28;1113;-84
2023/09/20 10:50:31;;;;;;;;;;;;;;;20.10;59.46;99022.50;10249533;28;1961;-84
2023/09/20 10:55:28;;;;;;;;;;;;;;;20.11;59.59;99010.94;10249453;28;891;-84
2023/09/20 11:00:30;;;;;;;;;;;;;;;20.11;59.49;99010.94;10249923;28;836;-84
2023/09/20 11:05:28;;;;;;;;;;;;;;;20.11;59.56;99010.94;10249621;28;851;-84
2023/09/20 11:10:24;;;;;;;;;;;;;;;20.13;59.42;99014.34;10248719;28;1898;-84
2023/09/20 11:15:19;;;;;;;;;;;;;;;20.13;59.33;99003.75;10249515;28;912;-84
2023/09/20 11:20:15;;;;;;;;;;;;;;;20.13;59.42;99003.75;10248586;28;861;-84
2023/09/20 11:25:12;;;;;;;;;;;;;;;20.16;59.33;99008.84;10248271;28;803;-84
2023/09/20 11:30:11;;;;;;;;;;;;;;;20.18;59.18;98993.72;10248415;28;1886;-84
2023/09/20 11:35:07;;;;;;;;;;;;;;;20.18;59.36;99009.59;10248411;28;869;-84
2023/09/20 11:40:04;;;;;;;;;;;;;;;20.17;59.25;98992.00;10247826;28;1375;-84
2023/09/20 11:45:02;;;;;;;;;;;;;;;20.16;59.33;98995.63;10248178;28;882;-84
2023/09/20 11:49:58;;;;;;;;;;;;;;;20.17;59.37;98985.88;10247804;28;1965;-83
2023/09/20 11:54:53;;;;;;;;;;;;;;;20.19;59.26;98991.94;10247067;28;796;-84
2023/09/20 11:59:50;;;;;;;;;;;;;;;20.17;59.38;98975.28;10245274;28;1391;-84
2023/09/20 12:04:46;;;;;;;;;;;;;;;20.15;59.28;98986.00;10246024;28;951;-84
2023/09/20 12:09:42;;;;;;;;;;;;;;;20.16;59.30;98982.41;10246475;28;1957;-84
2023/09/20 12:14:38;;;;;;;;;;;;;;;20.16;59.36;98969.16;10246964;28;870;-84
2023/09/20 12:19:34;;;;;;;;;;;;;;;20.18;59.32;98985.78;10246104;28;903;-84
2023/09/20 12:24:30;;;;;;;;;;;;;;;20.18;59.15;98969.06;10247071;28;865;-84
2023/09/20 12:29:26;;;;;;;;;;;;;;;20.17;59.10;98976.13;10246314;28;1890;-84
2023/09/20 12:34:22;;;;;;;;;;;;;;;20.19;59.17;98966.31;10246130;28;836;-84
2023/09/20 12:39:18;;;;;;;;;;;;;;;20.24;59.13;98971.31;10245747;28;1150;-83
2023/09/20 12:44:14;;;;;;;;;;;;;;;20.31;58.85;98962.03;10245774;28;852;-84
2023/09/20 12:49:10;;;;;;;;;;;;;;;20.31;58.81;98954.94;10246068;28;1969;-84
2023/09/20 12:54:06;;;;;;;;;;;;;;;20.27;58.88;98948.13;10245669;28;940;-84
2023/09/20 12:59:02;;;;;;;;;;;;;;;20.28;58.80;98941.91;10245542;28;961;-84
2023/09/20 13:03:58;;;;;;;;;;;;;;;20.38;58.55;98939.47;10245280;28;899;-85
2023/09/20 13:08:55;;;;;;;;;;;;;;;20.49;58.64;98921.09;10241811;28;1894;-79
2023/09/20 13:13:52;;;;;;;;;;;;;;;20.44;58.61;98917.06;10235463;28;1383;-79
2023/09/20 13:18:48;;;;;;;;;;;;;;;20.55;58.74;98918.03;10241796;28;1373;-79
2023/09/20 13:23:44;;;;;;;;;;;;;;;20.61;58.42;98905.34;10240641;28;1416;-77
2023/09/20 13:28:41;;;;;;;;;;;;;;;20.58;58.66;98896.66;10240811;28;1902;-79
2023/09/20 13:33:38;;;;;;;;;;;;;;;20.70;58.34;98888.84;10240585;28;1433;-79
2023/09/20 13:38:36;;;;;;;;;;;;;;;20.73;58.48;98891.28;10244628;28;1101;-81
2023/09/20 13:43:32;;;;;;;;;;;;;;;20.69;58.71;98877.38;10241245;28;1392;-79
2023/09/20 13:48:28;;;;;;;;;;;;;;;20.74;58.59;98869.13;10243731;28;1965;-81
2023/09/20 13:53:24;;;;;;;;;;;;;;;20.71;58.90;98862.22;10203714;28;1276;-79
2023/09/20 13:58:20;;;;;;;;;;;;;;;20.71;58.85;98849.00;10215346;28;1369;-73
2023/09/20 14:03:16;;;;;;;;;;;;;;;20.88;58.42;98845.19;10242526;28;1369;-75
2023/09/20 14:08:12;;;;;;;;;;;;;;;21.10;57.82;98835.69;10241423;28;1951;-74
2023/09/20 14:13:09;;;;;;;;;;;;;;;20.98;58.68;98835.59;10243331;28;921;-74
2023/09/20 14:18:08;;;;;;;;;;;;;;;21.05;58.67;98843.13;10242550;28;961;-74
2023/09/20 14:23:04;;;;;;;;;;;;;;;21.27;57.96;98843.28;10248096;28;1408;-74
2023/09/20 14:28:00;;;;;;;;;;;;;;;21.44;57.61;98828.84;10248470;28;1895;-74
2023/09/20 14:32:56;;;;;;;;;;;;;;;21.48;57.59;98825.00;10249616;28;863;-74
2023/09/20 14:37:53;;;;;;;;;;;;;;;21.57;57.40;98816.38;10241532;28;1460;-77
2023/09/20 14:42:49;;;;;;;;;;;;;;;21.60;57.71;98815.31;10209203;28;814;-79
2023/09/20 14:47:45;;;;;;;;;;;;;;;21.55;57.78;98806.84;10228354;28;1977;-78
2023/09/20 14:52:41;;;;;;;;;;;;;;;21.21;58.42;98802.16;10249576;28;933;-79
2023/09/20 14:57:37;;;;;;;;;;;;;;;21.09;58.64;98804.84;10247593;28;1350;-79
2023/09/20 15:02:33;;;;;;;;;;;;;;;21.06;58.84;98803.25;10246520;28;1110;-78
2023/09/20 15:07:29;;;;;;;;;;;;;;;20.98;59.02;98797.66;10246391;28;1902;-79
2023/09/20 15:12:26;;;;;;;;;;;;;;;21.00;58.85;98793.94;10244398;28;1476;-79
2023/09/20 15:17:22;;;;;;;;;;;;;;;21.02;58.81;98785.91;10247587;28;1575;-73
2023/09/20 15:22:19;;;;;;;;;;;;;;;20.97;58.98;98782.75;10248680;28;853;-76
2023/09/20 15:27:15;;;;;;;;;;;;;;;21.15;58.63;98773.47;10248973;28;1898;-74
2023/09/20 15:32:12;;;;;;;;;;;;;;;21.38;58.14;98768.31;10247918;28;867;-74
2023/09/20 15:37:07;;;;;;;;;;;;;;;21.36;58.13;98765.75;10247695;28;1574;-79
2023/09/20 15:42:03;;;;;;;;;;;;;;;21.22;58.79;98758.81;10248344;28;900;-79
2023/09/20 15:46:59;;;;;;;;;;;;;;;20.99;59.42;98749.03;10248013;28;1969;-79
2023/09/20 15:51:55;;;;;;;;;;;;;;;20.88;59.85;98751.59;10248030;28;853;-78
2023/09/20 15:56:51;;;;;;;;;;;;;;;20.82;59.99;98752.91;10247148;28;927;-79
2023/09/20 16:01:47;;;;;;;;;;;;;;;20.78;60.26;98749.63;10246983;28;777;-78
2023/09/20 16:06:45;;;;;;;;;;;;;;;20.77;60.15;98745.28;10246617;28;1961;-78
2023/09/20 16:11:42;;;;;;;;;;;;;;;20.75;60.19;98739.25;10245917;28;1091;-79
2023/09/20 16:16:38;;;;;;;;;;;;;;;20.74;60.20;98740.19;10246970;28;982;-75
2023/09/20 16:21:35;;;;;;;;;;;;;;;20.71;60.08;98724.53;10246170;28;771;-79
2023/09/20 16:26:31;;;;;;;;;;;;;;;20.69;60.29;98725.59;10245713;28;875;-72
2023/09/20 16:31:27;;;;;;;;;;;;;;;20.68;60.37;98714.16;10205541;28;1894;-77
2023/09/20 16:36:23;;;;;;;;;;;;;;;20.66;60.43;98718.72;10205915;28;1229;-70
2023/09/20 16:41:19;;;;;;;;;;;;;;;20.63;60.37;98713.66;10205642;28;855;-70
2023/09/20 16:46:15;;;;;;;;;;;;;;;20.61;60.39;98710.25;10204455;28;846;-74
2023/09/20 16:51:11;;;;;;;;;;;;;;;20.59;60.21;98690.97;10204845;28;1903;-75
2023/09/20 16:56:08;;;;;;;;;;;;;;;20.59;60.40;98693.63;10205369;28;850;-71
2023/09/20 17:01:05;;;;;;;;;;;;;;;20.57;60.47;98696.41;10205224;28;847;-73
2023/09/20 17:06:01;;;;;;;;;;;;;;;20.55;60.38;98695.66;10205084;28;865;-75
2023/09/20 17:10:56;;;;;;;;;;;;;;;20.56;60.45;98697.34;10204913;28;1894;-73
2023/09/20 17:15:52;;;;;;;;;;;;;;;20.55;60.46;98694.81;10204950;28;882;-75
2023/09/20 17:20:48;;;;;;;;;;;;;;;20.53;60.36;98694.88;10204169;28;774;-76
2023/09/20 17:25:44;;;;;;;;;;;;;;;20.53;60.53;98696.69;10237309;28;1887;-76
2023/09/20 17:30:43;;;;;;;;;;;;;;;20.52;60.45;98695.00;10244538;28;1902;-76
2023/09/20 17:35:39;;;;;;;;;;;;;;;20.50;60.64;98684.53;10243560;28;867;-75
2023/09/20 17:40:35;;;;;;;;;;;;;;;20.49;60.58;98682.84;10244106;28;1143;-75
2023/09/20 17:45:31;;;;;;;;;;;;;;;20.48;60.55;98670.53;10244175;28;858;-75
2023/09/20 17:50:27;;;;;;;;;;;;;;;20.49;60.68;98679.34;10244127;28;1914;-75
2023/09/20 17:55:25;;;;;;;;;;;;;;;20.48;60.38;98675.84;10245507;28;785;-76
2023/09/20 18:00:24;;;;;;;;;;;;;;;20.48;60.54;98675.84;10251465;28;923;-76
2023/09/20 18:05:20;;;;;;;;;;;;;;;20.49;60.44;98676.72;10209061;28;1110;-74
2023/09/20 18:10:16;;;;;;;;;;;;;;;20.47;60.47;98670.66;10210730;28;1972;-76
2023/09/20 18:15:12;;;;;;;;;;;;;;;20.47;60.43;98673.31;10210437;28;834;-75
2023/09/20 18:20:09;;;;;;;;;;;;;;;20.47;60.30;98663.56;10210587;28;855;-75
2023/09/20 18:25:05;;;;;;;;;;;;;;;20.47;60.51;98662.72;10210625;28;911;-75
2023/09/20 18:30:01;;;;;;;;;;;;;;;20.45;60.59;98664.63;10210355;28;1949;-75
2023/09/20 18:34:57;;;;;;;;;;;;;;;20.45;60.53;98662.81;10210212;28;840;-75
2023/09/20 18:39:53;;;;;;;;;;;;;;;20.45;60.46;98672.56;10210423;28;1110;-75
2023/09/20 18:44:49;;;;;;;;;;;;;;;20.44;60.48;98666.44;10209499;28;784;-75
2023/09/20 18:49:45;;;;;;;;;;;;;;;20.45;60.55;98664.63;10209272;28;1959;-75
2023/09/20 18:54:41;;;;;;;;;;;;;;;20.44;60.56;98655.00;10208976;28;1204;-79
2023/09/20 18:59:42;;;;;;;;;;;;;;;20.45;60.45;98654.88;10207925;28;1205;-70
2023/09/20 19:04:39;;;;;;;;;;;;;;;20.46;60.58;98647.78;10209854;28;871;-77
2023/09/20 19:09:36;;;;;;;;;;;;;;;20.45;60.59;98646.94;10207946;28;1936;-76
2023/09/20 19:14:32;;;;;;;;;;;;;;;20.46;60.73;98650.44;10208010;28;974;-76
2023/09/20 19:19:28;;;;;;;;;;;;;;;20.44;60.28;98645.25;10208322;28;929;-76
2023/09/20 19:24:25;;;;;;;;;;;;;;;20.45;60.37;98643.47;10208509;28;839;-77
2023/09/20 19:29:22;;;;;;;;;;;;;;;20.45;60.53;98652.25;10207704;28;1890;-77
2023/09/20 19:34:18;;;;;;;;;;;;;;;20.45;60.41;98648.75;10207802;28;899;-77
2023/09/20 19:39:14;;;;;;;;;;;;;;;20.46;60.30;98663.66;10206875;28;1300;-77
2023/09/20 19:44:11;;;;;;;;;;;;;;;20.45;60.39;98654.03;10207346;28;901;-77
2023/09/20 19:49:07;;;;;;;;;;;;;;;20.45;60.21;98659.34;10207147;28;1965;-77
2023/09/20 19:54:08;;;;;;;;;;;;;;;20.45;60.16;98664.63;10206999;28;1004;-77
2023/09/20 19:59:04;;;;;;;;;;;;;;;20.45;60.30;98662.00;10207410;28;812;-77
2023/09/20 20:04:00;;;;;;;;;;;;;;;20.45;60.38;98664.63;10206733;28;770;-77
2023/09/20 20:08:56;;;;;;;;;;;;;;;20.45;60.26;98669.94;10206445;28;1886;-77
2023/09/20 20:13:52;;;;;;;;;;;;;;;20.43;59.93;98662.09;10206189;28;934;-77
2023/09/20 20:18:49;;;;;;;;;;;;;;;20.44;60.12;98662.97;10205039;28;1134;-75
2023/09/20 20:23:45;;;;;;;;;;;;;;;20.44;60.14;98655.84;10205869;28;861;-75
2023/09/20 20:28:41;;;;;;;;;;;;;;;20.44;60.26;98647.91;10205745;28;1894;-75
2023/09/20 20:33:37;;;;;;;;;;;;;;;20.44;60.28;98653.22;10205630;28;909;-75
2023/09/20 20:38:33;;;;;;;;;;;;;;;20.44;60.21;98649.72;10205555;28;1165;-75
2023/09/20 20:43:28;;;;;;;;;;;;;;;20.44;60.21;98633.84;10204613;28;866;-75
2023/09/20 20:48:24;;;;;;;;;;;;;;;20.44;60.14;98639.13;10205829;28;1960;-75
2023/09/20 20:53:20;;;;;;;;;;;;;;;20.44;60.08;98626.75;10205526;28;872;-76
2023/09/20 20:58:18;;;;;;;;;;;;;;;20.44;60.25;98628.53;10204175;28;908;-75
2023/09/20 21:03:15;;;;;;;;;;;;;;;20.44;60.26;98633.84;10204629;28;885;-75
2023/09/20 21:08:12;;;;;;;;;;;;;;;20.44;60.08;98621.44;10204975;28;1949;-75
2023/09/20 21:13:11;;;;;;;;;;;;;;;20.44;60.05;98623.25;10204193;28;998;-75
2023/09/20 21:18:12;;;;;;;;;;;;;;;20.43;60.17;98614.44;10204714;28;978;-76
2023/09/20 21:23:11;;;;;;;;;;;;;;;20.43;60.15;98621.53;10203442;28;1634;-76
2023/09/20 21:28:10;;;;;;;;;;;;;;;20.42;59.63;98615.41;10204272;28;1945;-76
2023/09/20 21:33:08;;;;;;;;;;;;;;;20.43;60.13;98613.59;10205084;28;795;-76
2023/09/20 21:38:07;;;;;;;;;;;;;;;20.42;60.19;98606.63;10203392;28;1396;-75
2023/09/20 21:43:03;;;;;;;;;;;;;;;20.43;60.13;98595.06;10203594;28;875;-76
2023/09/20 21:47:58;;;;;;;;;;;;;;;20.42;60.25;98588.94;10203576;28;1968;-75
2023/09/20 21:52:54;;;;;;;;;;;;;;;20.42;60.10;98590.75;10204164;28;952;-76
2023/09/20 21:57:52;;;;;;;;;;;;;;;20.43;60.26;98589.78;10203374;28;933;-75
2023/09/20 22:02:48;;;;;;;;;;;;;;;20.43;60.14;98587.97;10203294;28;923;-75
2023/09/20 22:07:49;;;;;;;;;;;;;;;20.41;60.16;98581.97;10203164;28;2022;-76
2023/09/20 22:12:45;;;;;;;;;;;;;;;20.42;60.22;98572.22;10203121;28;880;-75
2023/09/20 22:17:42;;;;;;;;;;;;;;;20.42;60.13;98565.13;10203692;28;779;-75
2023/09/20 22:22:39;;;;;;;;;;;;;;;20.43;60.22;98565.97;10202923;28;1133;-76
2023/09/20 22:27:35;;;;;;;;;;;;;;;20.42;60.43;98559.00;10202737;28;1961;-76
2023/09/20 22:32:30;;;;;;;;;;;;;;;20.42;59.99;98559.00;10203044;28;846;-75
2023/09/20 22:37:27;;;;;;;;;;;;;;;20.41;59.96;98552.00;10202556;28;1354;-75
2023/09/20 22:42:23;;;;;;;;;;;;;;;20.42;60.06;98553.69;10205951;28;931;-76
2023/09/20 22:47:20;;;;;;;;;;;;;;;20.41;60.14;98539.63;10210174;28;1910;-75
2023/09/20 22:52:16;;;;;;;;;;;;;;;20.40;59.94;98535.25;10209435;28;815;-76
2023/09/20 22:57:16;;;;;;;;;;;;;;;20.41;60.15;98530.81;10209313;28;877;-75
2023/09/20 23:02:12;;;;;;;;;;;;;;;20.41;60.15;98530.81;10209075;28;880;-75
2023/09/20 23:07:10;;;;;;;;;;;;;;;20.41;60.01;98531.69;10208850;28;1894;-75
2023/09/20 23:12:06;;;;;;;;;;;;;;;20.40;60.07;98514.09;10209273;28;879;-75
2023/09/20 23:17:05;;;;;;;;;;;;;;;20.40;59.95;98502.66;10208440;28;876;-76
2023/09/20 23:22:01;;;;;;;;;;;;;;;20.41;59.92;98512.28;10208593;28;865;-75
2023/09/20 23:27:01;;;;;;;;;;;;;;;20.39;59.97;98493.06;10208106;28;1953;-76
2023/09/20 23:31:57;;;;;;;;;;;;;;;20.39;60.01;98498.34;10207922;28;830;-76
2023/09/20 23:36:54;;;;;;;;;;;;;;;20.40;60.00;98500.03;10207357;28;1308;-75
2023/09/20 23:41:50;;;;;;;;;;;;;;;20.39;59.92;98488.59;10208628;28;865;-75
2023/09/20 23:46:49;;;;;;;;;;;;;;;20.39;59.91;98485.13;10207453;28;868;-75
2023/09/20 23:51:45;;;;;;;;;;;;;;;20.38;59.95;98481.59;10206996;28;1977;-75
2023/09/20 23:56:41;;;;;;;;;;;;;;;20.39;60.26;98482.47;10206456;28;1639;-75
